sensor_id;sensor_type;location;lat;lon;timestamp;P1;durP1;ratioP1;P2;durP2;ratioP2
26562;SDS011;14217;50.986;5.826;2023-04-08T00:00:36;1.70;;;0.70;;
26562;SDS011;14217;50.986;5.826;2023-04-08T00:05:38;1.13;;;0.40;;
26562;SDS011;14217;50.986;5.826;2023-04-08T00:10:40;1.67;;;1.20;;
26562;SDS011;14217;50.986;5.826;2023-04-08T00:15:42;8.38;;;1.40;;
26562;SDS011;14217;50.986;5.826;2023-04-08T00:20:44;1.85;;;0.93;;
26562;SDS011;14217;50.986;5.826;2023-04-08T00:25:46;2.42;;;0.95;;
26562;SDS011;14217;50.986;5.826;2023-04-08T00:30:48;1.77;;;0.80;;
26562;SDS011;14217;50.986;5.826;2023-04-08T00:35:50;1.70;;;0.70;;
26562;SDS011;14217;50.986;5.826;2023-04-08T00:40:52;1.50;;;0.82;;
26562;SDS011;14217;50.986;5.826;2023-04-08T00:45:54;0.80;;;0.73;;
26562;SDS011;14217;50.986;5.826;2023-04-08T00:50:57;1.23;;;0.50;;
26562;SDS011;14217;50.986;5.826;2023-04-08T00:55:59;0.77;;;0.57;;
26562;SDS011;14217;50.986;5.826;2023-04-08T01:01:06;1.33;;;0.80;;
26562;SDS011;14217;50.986;5.826;2023-04-08T01:06:29;1.40;;;0.75;;
26562;SDS011;14217;50.986;5.826;2023-04-08T01:11:41;0.70;;;0.70;;
26562;SDS011;14217;50.986;5.826;2023-04-08T01:16:45;1.13;;;0.60;;
26562;SDS011;14217;50.986;5.826;2023-04-08T01:21:47;1.75;;;0.90;;
26562;SDS011;14217;50.986;5.826;2023-04-08T01:26:50;0.40;;;0.40;;
26562;SDS011;14217;50.986;5.826;2023-04-08T01:31:52;1.48;;;0.60;;
26562;SDS011;14217;50.986;5.826;2023-04-08T01:36:56;1.33;;;0.77;;
26562;SDS011;14217;50.986;5.826;2023-04-08T01:41:59;1.20;;;0.57;;
26562;SDS011;14217;50.986;5.826;2023-04-08T01:47:03;1.30;;;0.90;;
26562;SDS011;14217;50.986;5.826;2023-04-08T01:52:05;1.73;;;0.70;;
26562;SDS011;14217;50.986;5.826;2023-04-08T01:57:10;0.80;;;0.70;;
26562;SDS011;14217;50.986;5.826;2023-04-08T02:02:15;1.85;;;0.60;;
26562;SDS011;14217;50.986;5.826;2023-04-08T02:07:20;2.35;;;0.90;;
26562;SDS011;14217;50.986;5.826;2023-04-08T02:12:23;1.55;;;0.32;;
26562;SDS011;14217;50.986;5.826;2023-04-08T02:17:33;1.27;;;0.68;;
26562;SDS011;14217;50.986;5.826;2023-04-08T02:22:43;0.90;;;0.43;;
26562;SDS011;14217;50.986;5.826;2023-04-08T02:27:51;0.95;;;0.60;;
26562;SDS011;14217;50.986;5.826;2023-04-08T02:32:55;2.10;;;0.65;;
26562;SDS011;14217;50.986;5.826;2023-04-08T02:37:58;0.45;;;0.45;;
26562;SDS011;14217;50.986;5.826;2023-04-08T02:43:00;0.75;;;0.50;;
26562;SDS011;14217;50.986;5.826;2023-04-08T02:48:02;1.00;;;0.90;;
26562;SDS011;14217;50.986;5.826;2023-04-08T02:53:04;2.20;;;0.65;;
26562;SDS011;14217;50.986;5.826;2023-04-08T02:58:06;0.55;;;0.55;;
26562;SDS011;14217;50.986;5.826;2023-04-08T03:03:08;0.70;;;0.40;;
26562;SDS011;14217;50.986;5.826;2023-04-08T03:08:10;0.50;;;0.50;;
26562;SDS011;14217;50.986;5.826;2023-04-08T03:13:12;1.60;;;0.40;;
26562;SDS011;14217;50.986;5.826;2023-04-08T03:18:14;0.75;;;0.40;;
26562;SDS011;14217;50.986;5.826;2023-04-08T03:23:16;0.50;;;0.50;;
26562;SDS011;14217;50.986;5.826;2023-04-08T03:28:18;2.40;;;0.57;;
26562;SDS011;14217;50.986;5.826;2023-04-08T03:33:20;0.73;;;0.52;;
26562;SDS011;14217;50.986;5.826;2023-04-08T03:38:23;1.88;;;0.60;;
26562;SDS011;14217;50.986;5.826;2023-04-08T03:43:24;1.55;;;0.65;;
26562;SDS011;14217;50.986;5.826;2023-04-08T03:48:27;0.80;;;0.50;;
26562;SDS011;14217;50.986;5.826;2023-04-08T03:53:29;0.68;;;0.35;;
26562;SDS011;14217;50.986;5.826;2023-04-08T03:58:31;1.75;;;0.80;;
26562;SDS011;14217;50.986;5.826;2023-04-08T04:03:33;1.38;;;0.70;;
26562;SDS011;14217;50.986;5.826;2023-04-08T04:08:35;1.48;;;0.50;;
26562;SDS011;14217;50.986;5.826;2023-04-08T04:13:37;1.30;;;0.50;;
26562;SDS011;14217;50.986;5.826;2023-04-08T04:18:39;0.45;;;0.45;;
26562;SDS011;14217;50.986;5.826;2023-04-08T04:23:41;1.30;;;0.60;;
26562;SDS011;14217;50.986;5.826;2023-04-08T04:28:43;2.38;;;0.80;;
26562;SDS011;14217;50.986;5.826;2023-04-08T04:33:46;1.15;;;0.73;;
26562;SDS011;14217;50.986;5.826;2023-04-08T04:38:48;0.35;;;0.35;;
26562;SDS011;14217;50.986;5.826;2023-04-08T04:43:52;1.05;;;0.52;;
26562;SDS011;14217;50.986;5.826;2023-04-08T04:48:54;1.33;;;0.63;;
26562;SDS011;14217;50.986;5.826;2023-04-08T04:53:57;0.50;;;0.50;;
26562;SDS011;14217;50.986;5.826;2023-04-08T04:58:59;1.02;;;0.47;;
26562;SDS011;14217;50.986;5.826;2023-04-08T05:04:01;2.08;;;0.77;;
26562;SDS011;14217;50.986;5.826;2023-04-08T05:09:03;1.00;;;0.90;;
26562;SDS011;14217;50.986;5.826;2023-04-08T05:14:05;0.77;;;0.60;;
26562;SDS011;14217;50.986;5.826;2023-04-08T05:19:07;0.60;;;0.50;;
26562;SDS011;14217;50.986;5.826;2023-04-08T05:24:10;1.48;;;0.80;;
26562;SDS011;14217;50.986;5.826;2023-04-08T05:29:12;1.67;;;1.08;;
26562;SDS011;14217;50.986;5.826;2023-04-08T05:34:14;2.00;;;0.60;;
26562;SDS011;14217;50.986;5.826;2023-04-08T05:39:19;0.93;;;0.68;;
26562;SDS011;14217;50.986;5.826;2023-04-08T05:44:21;2.33;;;0.80;;
26562;SDS011;14217;50.986;5.826;2023-04-08T05:49:24;1.48;;;0.50;;
26562;SDS011;14217;50.986;5.826;2023-04-08T05:54:26;3.20;;;0.63;;
26562;SDS011;14217;50.986;5.826;2023-04-08T05:59:28;3.38;;;0.88;;
26562;SDS011;14217;50.986;5.826;2023-04-08T06:04:30;11.20;;;1.15;;
26562;SDS011;14217;50.986;5.826;2023-04-08T06:09:35;3.28;;;1.40;;
26562;SDS011;14217;50.986;5.826;2023-04-08T06:14:38;17.65;;;1.95;;
26562;SDS011;14217;50.986;5.826;2023-04-08T06:19:40;12.25;;;2.42;;
26562;SDS011;14217;50.986;5.826;2023-04-08T06:24:42;8.23;;;1.65;;
26562;SDS011;14217;50.986;5.826;2023-04-08T06:29:44;5.07;;;1.70;;
26562;SDS011;14217;50.986;5.826;2023-04-08T06:34:46;9.18;;;2.50;;
26562;SDS011;14217;50.986;5.826;2023-04-08T06:39:49;4.35;;;2.05;;
26562;SDS011;14217;50.986;5.826;2023-04-08T06:44:52;9.75;;;1.73;;
26562;SDS011;14217;50.986;5.826;2023-04-08T06:49:54;3.10;;;1.63;;
26562;SDS011;14217;50.986;5.826;2023-04-08T06:54:56;3.95;;;1.73;;
26562;SDS011;14217;50.986;5.826;2023-04-08T06:59:58;2.40;;;1.55;;
26562;SDS011;14217;50.986;5.826;2023-04-08T07:05:01;3.55;;;1.42;;
26562;SDS011;14217;50.986;5.826;2023-04-08T07:10:03;8.10;;;1.95;;
26562;SDS011;14217;50.986;5.826;2023-04-08T07:15:05;4.47;;;2.20;;
26562;SDS011;14217;50.986;5.826;2023-04-08T07:20:07;4.85;;;1.48;;
26562;SDS011;14217;50.986;5.826;2023-04-08T07:25:10;5.75;;;1.98;;
26562;SDS011;14217;50.986;5.826;2023-04-08T07:30:12;8.40;;;2.05;;
26562;SDS011;14217;50.986;5.826;2023-04-08T07:35:14;2.80;;;1.70;;
26562;SDS011;14217;50.986;5.826;2023-04-08T07:40:19;2.70;;;1.88;;
26562;SDS011;14217;50.986;5.826;2023-04-08T07:45:21;3.80;;;1.77;;
26562;SDS011;14217;50.986;5.826;2023-04-08T07:50:24;4.45;;;1.52;;
26562;SDS011;14217;50.986;5.826;2023-04-08T07:55:26;4.70;;;1.98;;
26562;SDS011;14217;50.986;5.826;2023-04-08T08:00:28;4.65;;;2.47;;
26562;SDS011;14217;50.986;5.826;2023-04-08T08:05:31;3.55;;;1.33;;
26562;SDS011;14217;50.986;5.826;2023-04-08T08:10:33;2.58;;;1.60;;
26562;SDS011;14217;50.986;5.826;2023-04-08T08:15:36;5.93;;;2.00;;
26562;SDS011;14217;50.986;5.826;2023-04-08T08:20:38;4.20;;;1.98;;
26562;SDS011;14217;50.986;5.826;2023-04-08T08:25:39;3.17;;;2.47;;
26562;SDS011;14217;50.986;5.826;2023-04-08T08:30:41;2.75;;;1.65;;
26562;SDS011;14217;50.986;5.826;2023-04-08T08:35:43;5.05;;;2.35;;
26562;SDS011;14217;50.986;5.826;2023-04-08T08:40:46;2.17;;;1.55;;
26562;SDS011;14217;50.986;5.826;2023-04-08T08:45:48;2.17;;;1.95;;
26562;SDS011;14217;50.986;5.826;2023-04-08T08:50:50;3.10;;;1.75;;
26562;SDS011;14217;50.986;5.826;2023-04-08T08:55:52;3.42;;;1.85;;
26562;SDS011;14217;50.986;5.826;2023-04-08T09:00:57;3.30;;;1.70;;
26562;SDS011;14217;50.986;5.826;2023-04-08T09:05:59;2.22;;;1.80;;
26562;SDS011;14217;50.986;5.826;2023-04-08T09:11:15;7.95;;;2.17;;
26562;SDS011;14217;50.986;5.826;2023-04-08T09:16:18;2.20;;;1.55;;
26562;SDS011;14217;50.986;5.826;2023-04-08T09:21:21;2.30;;;1.67;;
26562;SDS011;14217;50.986;5.826;2023-04-08T09:26:25;7.72;;;3.78;;
26562;SDS011;14217;50.986;5.826;2023-04-08T09:31:28;8.95;;;4.28;;
26562;SDS011;14217;50.986;5.826;2023-04-08T09:36:32;6.03;;;3.40;;
26562;SDS011;14217;50.986;5.826;2023-04-08T09:41:34;7.97;;;3.63;;
26562;SDS011;14217;50.986;5.826;2023-04-08T09:52:06;4.25;;;2.83;;
26562;SDS011;14217;50.986;5.826;2023-04-08T09:57:30;4.07;;;1.95;;
26562;SDS011;14217;50.986;5.826;2023-04-08T10:02:58;2.72;;;2.10;;
26562;SDS011;14217;50.986;5.826;2023-04-08T10:08:07;4.15;;;2.67;;
26562;SDS011;14217;50.986;5.826;2023-04-08T10:13:10;2.63;;;2.33;;
26562;SDS011;14217;50.986;5.826;2023-04-08T10:23:15;2.10;;;1.70;;
26562;SDS011;14217;50.986;5.826;2023-04-08T10:38:29;2.50;;;2.30;;
26562;SDS011;14217;50.986;5.826;2023-04-08T10:43:33;2.83;;;2.10;;
26562;SDS011;14217;50.986;5.826;2023-04-08T10:48:35;1.75;;;1.58;;
26562;SDS011;14217;50.986;5.826;2023-04-08T10:53:37;3.28;;;2.30;;
26562;SDS011;14217;50.986;5.826;2023-04-08T10:58:47;2.35;;;2.00;;
26562;SDS011;14217;50.986;5.826;2023-04-08T11:03:49;3.20;;;2.00;;
26562;SDS011;14217;50.986;5.826;2023-04-08T11:08:52;2.78;;;1.63;;
26562;SDS011;14217;50.986;5.826;2023-04-08T11:13:58;1.83;;;1.67;;
26562;SDS011;14217;50.986;5.826;2023-04-08T11:19:03;2.63;;;1.80;;
26562;SDS011;14217;50.986;5.826;2023-04-08T11:24:08;2.50;;;1.70;;
26562;SDS011;14217;50.986;5.826;2023-04-08T11:29:12;2.33;;;1.35;;
26562;SDS011;14217;50.986;5.826;2023-04-08T11:34:20;4.93;;;1.70;;
26562;SDS011;14217;50.986;5.826;2023-04-08T11:39:24;2.03;;;1.63;;
26562;SDS011;14217;50.986;5.826;2023-04-08T11:44:32;1.48;;;1.20;;
26562;SDS011;14217;50.986;5.826;2023-04-08T11:49:44;1.75;;;1.48;;
26562;SDS011;14217;50.986;5.826;2023-04-08T11:54:47;2.70;;;1.73;;
26562;SDS011;14217;50.986;5.826;2023-04-08T11:59:49;2.72;;;1.75;;
26562;SDS011;14217;50.986;5.826;2023-04-08T12:04:54;1.98;;;1.42;;
26562;SDS011;14217;50.986;5.826;2023-04-08T12:09:57;3.75;;;1.88;;
26562;SDS011;14217;50.986;5.826;2023-04-08T12:14:59;1.73;;;1.63;;
26562;SDS011;14217;50.986;5.826;2023-04-08T12:20:01;1.95;;;1.70;;
26562;SDS011;14217;50.986;5.826;2023-04-08T12:25:04;2.30;;;2.10;;
26562;SDS011;14217;50.986;5.826;2023-04-08T12:30:07;2.67;;;1.40;;
26562;SDS011;14217;50.986;5.826;2023-04-08T12:35:10;1.52;;;1.42;;
26562;SDS011;14217;50.986;5.826;2023-04-08T12:40:12;1.90;;;1.70;;
26562;SDS011;14217;50.986;5.826;2023-04-08T12:45:15;1.92;;;1.83;;
26562;SDS011;14217;50.986;5.826;2023-04-08T12:50:17;1.63;;;1.42;;
26562;SDS011;14217;50.986;5.826;2023-04-08T12:55:19;1.50;;;1.40;;
26562;SDS011;14217;50.986;5.826;2023-04-08T13:00:25;2.72;;;1.83;;
26562;SDS011;14217;50.986;5.826;2023-04-08T13:05:28;1.75;;;1.65;;
26562;SDS011;14217;50.986;5.826;2023-04-08T13:10:44;1.27;;;1.17;;
26562;SDS011;14217;50.986;5.826;2023-04-08T13:15:46;2.70;;;1.73;;
26562;SDS011;14217;50.986;5.826;2023-04-08T13:20:48;2.72;;;1.92;;
26562;SDS011;14217;50.986;5.826;2023-04-08T13:25:50;1.80;;;1.38;;
26562;SDS011;14217;50.986;5.826;2023-04-08T13:30:52;1.98;;;1.67;;
26562;SDS011;14217;50.986;5.826;2023-04-08T13:35:55;1.52;;;1.42;;
26562;SDS011;14217;50.986;5.826;2023-04-08T13:40:57;1.80;;;1.70;;
26562;SDS011;14217;50.986;5.826;2023-04-08T13:45:59;2.50;;;2.05;;
26562;SDS011;14217;50.986;5.826;2023-04-08T13:51:01;2.05;;;1.95;;
26562;SDS011;14217;50.986;5.826;2023-04-08T13:56:03;2.08;;;1.70;;
26562;SDS011;14217;50.986;5.826;2023-04-08T14:01:05;1.38;;;1.27;;
26562;SDS011;14217;50.986;5.826;2023-04-08T14:06:07;2.05;;;1.50;;
26562;SDS011;14217;50.986;5.826;2023-04-08T14:11:09;1.60;;;1.50;;
26562;SDS011;14217;50.986;5.826;2023-04-08T14:16:11;3.63;;;2.85;;
26562;SDS011;14217;50.986;5.826;2023-04-08T14:21:13;2.35;;;1.95;;
26562;SDS011;14217;50.986;5.826;2023-04-08T14:26:16;2.25;;;2.10;;
26562;SDS011;14217;50.986;5.826;2023-04-08T14:31:18;4.97;;;2.65;;
26562;SDS011;14217;50.986;5.826;2023-04-08T14:36:21;2.80;;;1.60;;
26562;SDS011;14217;50.986;5.826;2023-04-08T14:41:24;2.58;;;2.38;;
26562;SDS011;14217;50.986;5.826;2023-04-08T14:46:27;3.10;;;2.33;;
26562;SDS011;14217;50.986;5.826;2023-04-08T14:51:29;2.60;;;2.30;;
26562;SDS011;14217;50.986;5.826;2023-04-08T14:56:32;1.50;;;1.40;;
26562;SDS011;14217;50.986;5.826;2023-04-08T15:01:34;4.60;;;2.78;;
26562;SDS011;14217;50.986;5.826;2023-04-08T15:06:36;2.28;;;2.03;;
26562;SDS011;14217;50.986;5.826;2023-04-08T15:11:41;2.80;;;2.40;;
26562;SDS011;14217;50.986;5.826;2023-04-08T15:16:43;2.58;;;2.30;;
26562;SDS011;14217;50.986;5.826;2023-04-08T15:21:45;2.63;;;2.42;;
26562;SDS011;14217;50.986;5.826;2023-04-08T15:26:47;2.80;;;2.60;;
26562;SDS011;14217;50.986;5.826;2023-04-08T15:31:50;2.60;;;2.38;;
26562;SDS011;14217;50.986;5.826;2023-04-08T15:36:53;2.67;;;2.47;;
26562;SDS011;14217;50.986;5.826;2023-04-08T15:41:57;2.95;;;2.28;;
26562;SDS011;14217;50.986;5.826;2023-04-08T15:46:59;2.55;;;1.80;;
26562;SDS011;14217;50.986;5.826;2023-04-08T15:52:01;2.50;;;2.30;;
26562;SDS011;14217;50.986;5.826;2023-04-08T15:57:04;23.83;;;2.88;;
26562;SDS011;14217;50.986;5.826;2023-04-08T16:02:06;6.40;;;2.85;;
26562;SDS011;14217;50.986;5.826;2023-04-08T16:07:08;7.00;;;2.90;;
26562;SDS011;14217;50.986;5.826;2023-04-08T16:12:10;2.17;;;1.98;;
26562;SDS011;14217;50.986;5.826;2023-04-08T16:17:12;2.33;;;2.13;;
26562;SDS011;14217;50.986;5.826;2023-04-08T16:22:15;3.55;;;2.50;;
26562;SDS011;14217;50.986;5.826;2023-04-08T16:27:16;4.45;;;1.90;;
26562;SDS011;14217;50.986;5.826;2023-04-08T16:32:19;3.15;;;2.35;;
26562;SDS011;14217;50.986;5.826;2023-04-08T16:37:21;2.55;;;1.70;;
26562;SDS011;14217;50.986;5.826;2023-04-08T16:42:23;3.88;;;1.17;;
26562;SDS011;14217;50.986;5.826;2023-04-08T16:47:25;2.35;;;1.80;;
26562;SDS011;14217;50.986;5.826;2023-04-08T16:52:28;2.05;;;1.40;;
26562;SDS011;14217;50.986;5.826;2023-04-08T16:57:30;5.20;;;1.75;;
26562;SDS011;14217;50.986;5.826;2023-04-08T17:02:32;2.17;;;1.42;;
26562;SDS011;14217;50.986;5.826;2023-04-08T17:07:34;6.50;;;1.70;;
26562;SDS011;14217;50.986;5.826;2023-04-08T17:12:36;2.08;;;1.88;;
26562;SDS011;14217;50.986;5.826;2023-04-08T17:17:39;4.60;;;1.60;;
26562;SDS011;14217;50.986;5.826;2023-04-08T17:22:41;2.70;;;2.22;;
26562;SDS011;14217;50.986;5.826;2023-04-08T17:27:43;3.15;;;1.23;;
26562;SDS011;14217;50.986;5.826;2023-04-08T17:32:45;3.10;;;1.83;;
26562;SDS011;14217;50.986;5.826;2023-04-08T17:37:48;1.80;;;1.08;;
26562;SDS011;14217;50.986;5.826;2023-04-08T17:42:50;1.75;;;1.25;;
26562;SDS011;14217;50.986;5.826;2023-04-08T17:47:53;2.20;;;1.20;;
26562;SDS011;14217;50.986;5.826;2023-04-08T17:52:55;2.72;;;1.15;;
26562;SDS011;14217;50.986;5.826;2023-04-08T17:57:57;3.30;;;1.08;;
26562;SDS011;14217;50.986;5.826;2023-04-08T18:02:59;2.60;;;1.55;;
26562;SDS011;14217;50.986;5.826;2023-04-08T18:08:02;3.67;;;1.10;;
26562;SDS011;14217;50.986;5.826;2023-04-08T18:13:04;1.73;;;1.08;;
26562;SDS011;14217;50.986;5.826;2023-04-08T18:18:12;4.00;;;1.10;;
26562;SDS011;14217;50.986;5.826;2023-04-08T18:23:19;1.50;;;0.98;;
26562;SDS011;14217;50.986;5.826;2023-04-08T18:28:21;1.13;;;1.02;;
26562;SDS011;14217;50.986;5.826;2023-04-08T18:33:24;1.67;;;1.17;;
26562;SDS011;14217;50.986;5.826;2023-04-08T18:38:26;1.70;;;1.10;;
26562;SDS011;14217;50.986;5.826;2023-04-08T18:43:28;1.83;;;1.20;;
26562;SDS011;14217;50.986;5.826;2023-04-08T18:48:30;1.90;;;1.27;;
26562;SDS011;14217;50.986;5.826;2023-04-08T18:53:33;1.13;;;1.05;;
26562;SDS011;14217;50.986;5.826;2023-04-08T18:58:35;1.23;;;0.90;;
26562;SDS011;14217;50.986;5.826;2023-04-08T19:03:37;1.30;;;0.77;;
26562;SDS011;14217;50.986;5.826;2023-04-08T19:08:40;2.75;;;0.95;;
26562;SDS011;14217;50.986;5.826;2023-04-08T19:13:42;1.70;;;1.25;;
26562;SDS011;14217;50.986;5.826;2023-04-08T19:18:44;5.05;;;1.02;;
26562;SDS011;14217;50.986;5.826;2023-04-08T19:23:46;1.92;;;1.30;;
26562;SDS011;14217;50.986;5.826;2023-04-08T19:28:50;1.48;;;1.20;;
26562;SDS011;14217;50.986;5.826;2023-04-08T19:33:52;2.08;;;1.00;;
26562;SDS011;14217;50.986;5.826;2023-04-08T19:38:54;1.42;;;1.27;;
26562;SDS011;14217;50.986;5.826;2023-04-08T19:43:56;1.25;;;1.08;;
26562;SDS011;14217;50.986;5.826;2023-04-08T19:48:58;1.10;;;1.00;;
26562;SDS011;14217;50.986;5.826;2023-04-08T19:54:00;1.60;;;1.10;;
26562;SDS011;14217;50.986;5.826;2023-04-08T19:59:02;1.20;;;0.93;;
26562;SDS011;14217;50.986;5.826;2023-04-08T20:04:04;1.73;;;1.20;;
26562;SDS011;14217;50.986;5.826;2023-04-08T20:09:07;2.22;;;1.27;;
26562;SDS011;14217;50.986;5.826;2023-04-08T20:14:09;1.30;;;1.20;;
26562;SDS011;14217;50.986;5.826;2023-04-08T20:19:11;1.70;;;1.20;;
26562;SDS011;14217;50.986;5.826;2023-04-08T20:24:13;1.20;;;1.10;;
26562;SDS011;14217;50.986;5.826;2023-04-08T20:29:15;2.03;;;1.23;;
26562;SDS011;14217;50.986;5.826;2023-04-08T20:34:17;1.50;;;1.40;;
26562;SDS011;14217;50.986;5.826;2023-04-08T20:39:19;1.48;;;1.33;;
26562;SDS011;14217;50.986;5.826;2023-04-08T20:44:23;2.97;;;1.80;;
26562;SDS011;14217;50.986;5.826;2023-04-08T20:49:25;1.95;;;1.40;;
26562;SDS011;14217;50.986;5.826;2023-04-08T20:54:27;1.30;;;1.20;;
26562;SDS011;14217;50.986;5.826;2023-04-08T20:59:31;1.30;;;1.20;;
26562;SDS011;14217;50.986;5.826;2023-04-08T21:04:33;1.65;;;1.55;;
26562;SDS011;14217;50.986;5.826;2023-04-08T21:09:36;3.85;;;1.45;;
26562;SDS011;14217;50.986;5.826;2023-04-08T21:14:38;1.75;;;1.35;;
26562;SDS011;14217;50.986;5.826;2023-04-08T21:19:40;2.30;;;2.10;;
26562;SDS011;14217;50.986;5.826;2023-04-08T21:24:42;2.17;;;1.92;;
26562;SDS011;14217;50.986;5.826;2023-04-08T21:29:44;5.78;;;2.03;;
26562;SDS011;14217;50.986;5.826;2023-04-08T21:34:46;1.75;;;1.65;;
26562;SDS011;14217;50.986;5.826;2023-04-08T21:39:48;1.63;;;1.52;;
26562;SDS011;14217;50.986;5.826;2023-04-08T21:44:50;2.15;;;1.95;;
26562;SDS011;14217;50.986;5.826;2023-04-08T21:49:53;2.05;;;1.95;;
26562;SDS011;14217;50.986;5.826;2023-04-08T21:54:56;2.40;;;2.20;;
26562;SDS011;14217;50.986;5.826;2023-04-08T21:59:58;1.65;;;1.55;;
26562;SDS011;14217;50.986;5.826;2023-04-08T22:05:00;2.70;;;1.80;;
26562;SDS011;14217;50.986;5.826;2023-04-08T22:10:02;1.88;;;1.77;;
26562;SDS011;14217;50.986;5.826;2023-04-08T22:15:04;2.70;;;2.50;;
26562;SDS011;14217;50.986;5.826;2023-04-08T22:20:07;2.65;;;2.45;;
26562;SDS011;14217;50.986;5.826;2023-04-08T22:25:09;2.38;;;2.17;;
26562;SDS011;14217;50.986;5.826;2023-04-08T22:30:11;2.33;;;2.03;;
26562;SDS011;14217;50.986;5.826;2023-04-08T22:35:13;3.15;;;2.50;;
26562;SDS011;14217;50.986;5.826;2023-04-08T22:40:15;2.35;;;2.15;;
26562;SDS011;14217;50.986;5.826;2023-04-08T22:45:18;2.15;;;2.03;;
26562;SDS011;14217;50.986;5.826;2023-04-08T22:50:20;2.33;;;2.20;;
26562;SDS011;14217;50.986;5.826;2023-04-08T22:55:23;2.13;;;1.92;;
26562;SDS011;14217;50.986;5.826;2023-04-08T23:00:25;2.88;;;2.60;;
26562;SDS011;14217;50.986;5.826;2023-04-08T23:05:27;2.50;;;2.30;;
26562;SDS011;14217;50.986;5.826;2023-04-08T23:10:29;2.33;;;2.13;;
26562;SDS011;14217;50.986;5.826;2023-04-08T23:15:31;3.08;;;2.58;;
26562;SDS011;14217;50.986;5.826;2023-04-08T23:20:34;3.13;;;2.83;;
26562;SDS011;14217;50.986;5.826;2023-04-08T23:25:36;2.35;;;2.15;;
26562;SDS011;14217;50.986;5.826;2023-04-08T23:30:38;3.10;;;2.80;;
26562;SDS011;14217;50.986;5.826;2023-04-08T23:35:40;3.13;;;2.83;;
26562;SDS011;14217;50.986;5.826;2023-04-08T23:40:43;2.72;;;2.53;;
26562;SDS011;14217;50.986;5.826;2023-04-08T23:45:45;3.53;;;3.22;;
26562;SDS011;14217;50.986;5.826;2023-04-08T23:50:53;2.78;;;2.58;;
26562;SDS011;14217;50.986;5.826;2023-04-08T23:56:02;3.45;;;3.15;;
